Time;durP1;ratioP1;P1;durP2;ratioP2;P2;SDS_P1;SDS_P2;PMS_P1;PMS_P2;Temp;Humidity;BMP_temperature;BMP_pressure;BME280_temperature;BME280_humidity;BME280_pressure;Samples;Min_cycle;Max_cycle;Signal;HPM_P1;HPM_P2
2024/01/10 00:01:02;;;;;;;6.28;4.63;;;-3.50;82.30;;;;;;5044039;28;20211;-83
2024/01/10 00:03:29;;;;;;;10.02;6.80;;;-3.50;82.00;;;;;;5046837;28;20310;-83
2024/01/10 00:05:57;;;;;;;9.13;5.18;;;-3.50;82.50;;;;;;5049418;28;20637;-83
2024/01/10 00:08:24;;;;;;;9.95;6.57;;;-3.50;83.00;;;;;;5046163;28;20294;-83
2024/01/10 00:10:51;;;;;;;5.03;4.55;;;-3.50;81.60;;;;;;5043445;28;20679;-84
2024/01/10 00:13:18;;;;;;;6.40;5.80;;;-3.40;81.40;;;;;;5044326;28;20295;-84
2024/01/10 00:15:45;;;;;;;4.80;4.40;;;-3.40;82.30;;;;;;5041075;28;20216;-83
2024/01/10 00:18:12;;;;;;;5.18;3.28;;;-3.40;83.00;;;;;;5041554;28;20292;-83
2024/01/10 00:20:38;;;;;;;5.03;3.85;;;-3.50;82.80;;;;;;5039288;28;20205;-83
2024/01/10 00:23:07;;;;;;;2.53;2.22;;;-3.40;83.30;;;;;;5043067;28;20212;-83
2024/01/10 00:25:34;;;;;;;6.45;5.45;;;-3.50;83.40;;;;;;5049635;28;20209;-83
2024/01/10 00:28:01;;;;;;;5.70;4.10;;;-3.50;84.10;;;;;;5030731;28;20296;-84
2024/01/10 00:30:27;;;;;;;7.10;4.55;;;-3.60;83.90;;;;;;5043716;28;20294;-83
2024/01/10 00:32:54;;;;;;;6.45;3.30;;;-3.50;84.10;;;;;;5045309;28;20284;-83
2024/01/10 00:35:21;;;;;;;6.35;5.63;;;-3.50;84.10;;;;;;5053438;27;20721;-83
2024/01/10 00:37:48;;;;;;;6.95;3.08;;;-3.60;83.90;;;;;;5033086;28;20811;-83
2024/01/10 00:40:16;;;;;;;3.45;2.75;;;-3.70;84.70;;;;;;5042921;28;20205;-83
2024/01/10 00:42:43;;;;;;;3.90;2.85;;;-3.70;85.70;;;;;;5035837;28;20238;-84
2024/01/10 00:45:10;;;;;;;3.20;2.90;;;-3.60;85.70;;;;;;5034810;28;20232;-83
2024/01/10 00:47:37;;;;;;;5.03;3.97;;;-3.60;85.90;;;;;;5047689;28;20319;-83
2024/01/10 00:50:04;;;;;;;13.10;5.57;;;-3.70;85.50;;;;;;5051347;27;20219;-83
2024/01/10 00:52:30;;;;;;;6.68;4.30;;;-3.60;86.00;;;;;;5045614;27;20640;-83
2024/01/10 00:54:57;;;;;;;4.55;2.83;;;-3.60;85.70;;;;;;5050223;28;20218;-83
2024/01/10 00:57:25;;;;;;;7.38;5.95;;;-3.60;85.70;;;;;;5044747;28;20205;-85
2024/01/10 00:59:52;;;;;;;10.00;5.50;;;-3.70;84.90;;;;;;5045717;28;20656;-83
2024/01/10 01:02:19;;;;;;;5.90;3.80;;;-3.70;84.70;;;;;;5049518;28;20250;-83
2024/01/10 01:04:46;;;;;;;4.38;3.80;;;-3.80;85.00;;;;;;5047638;28;20727;-83
2024/01/10 01:07:13;;;;;;;4.68;3.35;;;-3.80;85.40;;;;;;5049132;28;20622;-83
2024/01/10 01:09:39;;;;;;;4.03;3.17;;;-3.80;86.30;;;;;;5042685;28;20579;-83
2024/01/10 01:12:07;;;;;;;9.05;4.68;;;-3.70;86.90;;;;;;5035761;28;20283;-83
2024/01/10 01:14:35;;;;;;;4.18;3.65;;;-3.60;87.00;;;;;;5034568;28;20208;-83
2024/01/10 01:17:02;;;;;;;5.72;4.13;;;-3.70;86.20;;;;;;5045456;28;20673;-83
2024/01/10 01:19:29;;;;;;;9.68;5.40;;;-3.60;87.00;;;;;;5035500;28;20277;-83
2024/01/10 01:21:56;;;;;;;5.95;4.32;;;-3.60;86.50;;;;;;5040377;28;20291;-83
2024/01/10 01:24:23;;;;;;;7.97;4.05;;;-3.60;85.70;;;;;;5040801;28;20273;-83
2024/01/10 01:26:49;;;;;;;7.72;4.50;;;-3.50;86.10;;;;;;5037888;28;20206;-83
2024/01/10 01:29:16;;;;;;;14.13;6.32;;;-3.50;85.90;;;;;;5053799;28;20753;-83
2024/01/10 01:31:45;;;;;;;20.83;6.35;;;-3.40;86.10;;;;;;5052956;28;20212;-83
2024/01/10 01:34:12;;;;;;;6.85;4.45;;;-3.30;86.00;;;;;;5059616;28;20283;-83
2024/01/10 01:36:38;;;;;;;7.63;5.13;;;-3.40;85.40;;;;;;5059369;27;20211;-83
2024/01/10 01:39:05;;;;;;;6.28;3.85;;;-3.40;85.20;;;;;;5047554;27;20320;-83
2024/01/10 01:41:32;;;;;;;6.10;5.50;;;-3.40;86.00;;;;;;5047156;28;20742;-83
2024/01/10 01:43:59;;;;;;;8.50;5.20;;;-3.30;86.00;;;;;;5056749;28;20227;-84
2024/01/10 01:46:26;;;;;;;8.82;5.00;;;-3.40;85.90;;;;;;5050080;28;20215;-83
2024/01/10 01:48:54;;;;;;;9.15;4.72;;;-3.40;86.00;;;;;;5054748;28;20300;-83
2024/01/10 01:51:22;;;;;;;5.47;4.95;;;-3.40;85.60;;;;;;5047262;28;20210;-83
2024/01/10 01:53:50;;;;;;;8.75;4.20;;;-3.40;86.10;;;;;;5045388;28;20287;-83
2024/01/10 01:56:17;;;;;;;9.73;6.07;;;-3.30;85.20;;;;;;5053698;27;20227;-83
2024/01/10 01:58:46;;;;;;;6.50;4.38;;;-3.30;83.50;;;;;;5053147;28;20211;-83
2024/01/10 02:01:13;;;;;;;4.72;3.97;;;-3.30;83.60;;;;;;5045195;28;20261;-84
2024/01/10 02:03:40;;;;;;;14.75;6.47;;;-3.30;83.10;;;;;;5043431;28;20673;-83
2024/01/10 02:06:08;;;;;;;6.90;4.43;;;-3.30;84.40;;;;;;5050939;28;20562;-83
2024/01/10 02:08:36;;;;;;;9.82;3.45;;;-3.30;84.60;;;;;;5046035;28;20205;-83
2024/01/10 02:11:04;;;;;;;8.30;5.30;;;-3.30;84.50;;;;;;5041440;28;20238;-83
2024/01/10 02:13:33;;;;;;;6.15;4.15;;;-3.30;85.10;;;;;;5046170;28;20208;-83
2024/01/10 02:16:00;;;;;;;17.13;4.75;;;-3.30;84.50;;;;;;5049596;28;20201;-82
2024/01/10 02:18:28;;;;;;;5.45;3.53;;;-3.30;84.30;;;;;;5045024;27;20652;-83
2024/01/10 02:20:56;;;;;;;4.45;4.00;;;-3.30;83.70;;;;;;5047138;27;20223;-83
2024/01/10 02:23:25;;;;;;;27.27;5.28;;;-3.30;83.50;;;;;;5040276;28;20217;-83
2024/01/10 02:25:54;;;;;;;7.70;4.75;;;-3.30;82.80;;;;;;5039841;27;20260;-83
2024/01/10 02:28:23;;;;;;;7.05;3.78;;;-3.20;82.60;;;;;;5051283;28;20260;-83
2024/01/10 02:30:51;;;;;;;5.30;4.60;;;-3.40;82.80;;;;;;5041265;28;20213;-83
2024/01/10 02:33:18;;;;;;;13.90;3.92;;;-3.30;84.70;;;;;;5056672;28;20271;-83
2024/01/10 02:35:45;;;;;;;7.75;4.00;;;-3.30;83.90;;;;;;5055392;28;20204;-83
2024/01/10 02:38:12;;;;;;;6.50;4.38;;;-3.40;83.70;;;;;;5046521;28;20204;-83
2024/01/10 02:40:40;;;;;;;8.07;4.55;;;-3.50;84.30;;;;;;5048726;27;20206;-83
2024/01/10 02:43:09;;;;;;;9.30;6.18;;;-3.50;83.30;;;;;;5058160;27;20200;-82
2024/01/10 02:45:37;;;;;;;15.48;5.28;;;-3.50;83.30;;;;;;5051999;27;20234;-83
2024/01/10 02:48:06;;;;;;;6.50;5.80;;;-3.50;83.80;;;;;;5056562;28;20220;-82
2024/01/10 02:50:32;;;;;;;5.15;4.00;;;-3.30;84.30;;;;;;5047888;28;20291;-83
2024/01/10 02:52:59;;;;;;;8.13;4.90;;;-3.30;82.80;;;;;;5046409;28;20209;-83
2024/01/10 02:55:27;;;;;;;13.30;5.60;;;-3.30;82.60;;;;;;5042143;28;20721;-83
2024/01/10 02:57:54;;;;;;;7.07;4.10;;;-3.20;81.80;;;;;;5044770;28;20618;-83
2024/01/10 03:00:22;;;;;;;5.93;4.05;;;-3.20;82.00;;;;;;5043406;28;20204;-83
2024/01/10 03:02:51;;;;;;;6.85;5.38;;;-3.20;82.00;;;;;;5049366;27;20247;-83
2024/01/10 03:05:19;;;;;;;5.88;5.28;;;-3.10;82.20;;;;;;5049412;28;20277;-83
2024/01/10 03:07:47;;;;;;;3.63;3.33;;;-3.10;81.80;;;;;;5050628;28;20260;-84
2024/01/10 03:10:15;;;;;;;14.75;5.95;;;-3.20;82.10;;;;;;5046593;27;20732;-83
2024/01/10 03:12:43;;;;;;;6.70;5.15;;;-3.20;82.40;;;;;;5046190;27;20321;-83
2024/01/10 03:15:11;;;;;;;3.38;3.08;;;-3.10;82.80;;;;;;5046399;28;20205;-83
2024/01/10 03:17:40;;;;;;;5.40;4.40;;;-3.10;82.90;;;;;;5041639;28;20265;-83
2024/01/10 03:20:09;;;;;;;5.70;4.68;;;-3.00;81.90;;;;;;5047849;28;20201;-83
2024/01/10 03:22:37;;;;;;;7.85;5.07;;;-3.10;81.60;;;;;;5044747;28;20230;-83
2024/01/10 03:25:05;;;;;;;11.88;4.68;;;-3.10;81.60;;;;;;5043397;28;20581;-83
2024/01/10 03:27:32;;;;;;;4.15;3.78;;;-3.00;81.40;;;;;;5053149;28;20294;-83
2024/01/10 03:30:00;;;;;;;12.60;6.10;;;-2.90;80.80;;;;;;5050807;28;20197;-83
2024/01/10 03:32:28;;;;;;;8.98;3.42;;;-3.00;81.00;;;;;;5054562;28;20202;-83
2024/01/10 03:34:57;;;;;;;8.63;5.18;;;-3.00;81.20;;;;;;5050314;27;20291;-83
2024/01/10 03:37:25;;;;;;;6.07;5.68;;;-3.00;81.20;;;;;;5058118;28;20223;-83
2024/01/10 03:39:52;;;;;;;5.40;4.78;;;-2.90;80.90;;;;;;5059212;28;20648;-83
2024/01/10 03:42:19;;;;;;;7.82;3.78;;;-2.90;80.90;;;;;;5051427;28;20625;-83
2024/01/10 03:44:46;;;;;;;5.88;4.15;;;-3.00;80.60;;;;;;5060656;27;20308;-83
2024/01/10 03:47:13;;;;;;;9.57;5.13;;;-3.00;80.90;;;;;;5070833;27;20220;-83
2024/01/10 03:49:39;;;;;;;10.27;6.63;;;-3.10;80.50;;;;;;5080885;27;20670;-84
2024/01/10 03:52:08;;;;;;;8.93;5.65;;;-3.00;80.70;;;;;;5085550;27;20567;-84
2024/01/10 03:54:34;;;;;;;7.00;4.35;;;-3.10;80.90;;;;;;5073357;27;20673;-84
2024/01/10 03:57:01;;;;;;;7.18;5.43;;;-3.10;81.10;;;;;;5082940;27;20211;-83
2024/01/10 03:59:28;;;;;;;7.50;5.22;;;-3.00;81.00;;;;;;5067695;27;20311;-83
2024/01/10 04:01:55;;;;;;;12.90;6.63;;;-3.00;80.80;;;;;;5050349;28;20213;-84
2024/01/10 04:04:22;;;;;;;8.43;3.70;;;-2.90;80.60;;;;;;5048599;28;20286;-84
2024/01/10 04:06:49;;;;;;;7.50;4.63;;;-3.00;80.60;;;;;;5053829;27;20210;-83
2024/01/10 04:09:17;;;;;;;6.88;5.43;;;-3.00;81.00;;;;;;5050019;28;20209;-83
2024/01/10 04:11:44;;;;;;;6.10;4.72;;;-2.90;80.90;;;;;;5053918;28;20193;-84
2024/01/10 04:14:13;;;;;;;11.80;5.13;;;-2.90;80.90;;;;;;5053164;28;20204;-83
2024/01/10 04:16:39;;;;;;;9.35;4.70;;;-2.90;80.90;;;;;;5050394;28;20662;-84
2024/01/10 04:19:06;;;;;;;9.00;5.30;;;-2.90;81.00;;;;;;5043846;28;20319;-84
2024/01/10 04:21:33;;;;;;;6.50;4.28;;;-3.00;80.90;;;;;;5044994;28;20208;-84
2024/01/10 04:24:00;;;;;;;7.68;5.50;;;-3.10;80.80;;;;;;5052448;28;20314;-83
2024/01/10 04:26:28;;;;;;;8.20;4.30;;;-3.00;81.30;;;;;;5045836;28;20234;-84
2024/01/10 04:28:55;;;;;;;6.95;5.93;;;-3.00;82.00;;;;;;5047035;28;20615;-84
2024/01/10 04:31:22;;;;;;;8.40;4.07;;;-2.90;80.90;;;;;;5046922;28;20672;-84
2024/01/10 04:33:49;;;;;;;8.55;6.03;;;-3.00;80.60;;;;;;5047252;28;20207;-83
2024/01/10 04:36:15;;;;;;;8.88;4.20;;;-3.10;81.80;;;;;;5042536;28;20640;-83
2024/01/10 04:38:42;;;;;;;8.43;7.00;;;-3.00;82.20;;;;;;5039424;28;20208;-83
2024/01/10 04:41:09;;;;;;;5.65;4.88;;;-2.90;81.60;;;;;;5042408;28;20296;-84
2024/01/10 04:43:37;;;;;;;6.93;5.38;;;-3.00;81.90;;;;;;5048521;28;20218;-83
2024/01/10 04:46:04;;;;;;;14.43;5.82;;;-2.90;81.70;;;;;;5055190;28;20259;-84
2024/01/10 04:48:31;;;;;;;8.70;6.13;;;-2.90;81.90;;;;;;5055464;27;20254;-83
2024/01/10 04:50:58;;;;;;;5.60;3.67;;;-3.00;82.00;;;;;;5043212;28;20291;-84
2024/01/10 04:53:25;;;;;;;7.75;4.88;;;-2.90;81.80;;;;;;5047369;28;20235;-83
2024/01/10 04:55:51;;;;;;;5.88;5.03;;;-2.90;82.10;;;;;;5042396;27;20205;-84
2024/01/10 04:58:18;;;;;;;7.55;4.38;;;-2.80;81.70;;;;;;5046565;28;20209;-84
2024/01/10 05:00:47;;;;;;;7.15;6.22;;;-2.90;81.70;;;;;;5053573;28;20383;-83
2024/01/10 05:03:14;;;;;;;10.20;5.53;;;-3.00;82.40;;;;;;5054197;27;20284;-83
2024/01/10 05:05:41;;;;;;;6.15;4.70;;;-3.00;83.10;;;;;;5055873;27;20231;-83
2024/01/10 05:08:08;;;;;;;6.88;3.70;;;-2.90;83.30;;;;;;5042601;28;20200;-83
2024/01/10 05:10:35;;;;;;;7.53;5.53;;;-2.90;82.70;;;;;;5050733;28;20211;-83
2024/01/10 05:13:01;;;;;;;6.60;4.32;;;-2.90;82.80;;;;;;5038228;28;20288;-83
2024/01/10 05:15:28;;;;;;;11.23;7.47;;;-2.90;82.70;;;;;;5050271;28;20210;-83
2024/01/10 05:17:56;;;;;;;10.07;5.70;;;-2.80;81.90;;;;;;5051037;28;20640;-83
2024/01/10 05:20:23;;;;;;;5.50;4.63;;;-2.90;81.50;;;;;;5050933;27;20287;-83
2024/01/10 05:22:50;;;;;;;5.28;4.80;;;-3.00;81.90;;;;;;5051825;28;20214;-83
2024/01/10 05:25:18;;;;;;;10.65;5.82;;;-3.10;82.50;;;;;;5052241;28;20341;-83
2024/01/10 05:27:45;;;;;;;12.18;5.30;;;-3.10;83.20;;;;;;5049606;28;20839;-83
2024/01/10 05:30:13;;;;;;;9.30;5.95;;;-3.10;83.30;;;;;;5049458;28;20290;-83
2024/01/10 05:32:40;;;;;;;7.63;4.55;;;-3.10;83.60;;;;;;5039597;28;20352;-83
2024/01/10 05:35:10;;;;;;;6.88;4.35;;;-3.20;83.60;;;;;;5040590;27;20266;-83
2024/01/10 05:37:37;;;;;;;6.78;6.15;;;-3.20;83.80;;;;;;5041926;28;20257;-83
2024/01/10 05:40:04;;;;;;;12.57;6.40;;;-3.20;83.80;;;;;;5042105;28;20280;-85
2024/01/10 05:42:32;;;;;;;6.40;4.35;;;-3.30;83.90;;;;;;5038910;28;20570;-78
2024/01/10 05:44:59;;;;;;;9.65;4.75;;;-3.30;84.80;;;;;;5037994;27;20670;-77
2024/01/10 05:47:26;;;;;;;8.50;4.78;;;-3.20;85.10;;;;;;5035390;27;20628;-78
2024/01/10 05:49:53;;;;;;;10.73;7.75;;;-3.30;84.70;;;;;;5060364;28;20288;-78
2024/01/10 05:52:22;;;;;;;12.48;6.30;;;-3.20;84.30;;;;;;5056827;27;20214;-78
2024/01/10 05:54:49;;;;;;;7.63;5.75;;;-3.30;84.40;;;;;;5040734;28;20636;-75
2024/01/10 05:57:16;;;;;;;10.50;5.13;;;-3.30;84.70;;;;;;5048474;28;20205;-76
2024/01/10 05:59:43;;;;;;;7.47;6.15;;;-3.40;84.90;;;;;;5051993;27;20219;-76
2024/01/10 06:02:09;;;;;;;8.55;5.68;;;-3.50;85.70;;;;;;5047908;28;20283;-76
2024/01/10 06:04:36;;;;;;;10.45;6.40;;;-3.60;86.40;;;;;;5043308;28;20209;-80
2024/01/10 06:07:03;;;;;;;12.23;6.70;;;-3.80;86.90;;;;;;5052703;28;20310;-78
2024/01/10 06:09:31;;;;;;;10.30;4.72;;;-4.00;87.60;;;;;;5053477;28;20208;-79
2024/01/10 06:11:58;;;;;;;6.47;4.75;;;-3.90;88.10;;;;;;5057862;28;20286;-78
2024/01/10 06:14:25;;;;;;;5.28;4.43;;;-3.70;87.40;;;;;;5045198;28;20506;-76
2024/01/10 06:16:52;;;;;;;6.90;5.03;;;-3.80;87.40;;;;;;5054676;28;20228;-81
2024/01/10 06:19:19;;;;;;;7.05;6.35;;;-3.90;88.00;;;;;;5051827;28;20490;-80
2024/01/10 06:21:46;;;;;;;6.72;4.22;;;-3.90;88.00;;;;;;5041760;28;20216;-85
2024/01/10 06:24:13;;;;;;;8.90;6.07;;;-4.00;87.70;;;;;;5050890;28;20204;-85
2024/01/10 06:26:41;;;;;;;5.45;4.95;;;-4.00;88.20;;;;;;5039526;27;20653;-85
2024/01/10 06:29:08;;;;;;;5.95;4.63;;;-4.00;88.60;;;;;;5046983;27;20211;-85
2024/01/10 06:31:34;;;;;;;6.63;5.70;;;-4.00;88.50;;;;;;5046380;27;20208;-85
2024/01/10 06:34:01;;;;;;;10.68;6.82;;;-4.20;89.50;;;;;;5038341;27;20216;-84
2024/01/10 06:36:28;;;;;;;9.30;5.60;;;-4.30;90.10;;;;;;5037506;28;20215;-84
2024/01/10 06:38:55;;;;;;;13.07;8.85;;;-4.20;90.30;;;;;;5045358;28;21301;-84
2024/01/10 06:41:24;;;;;;;6.47;5.55;;;-4.00;89.80;;;;;;5046027;27;20287;-84
2024/01/10 06:43:52;;;;;;;5.80;4.63;;;-4.00;89.70;;;;;;5045753;28;20201;-85
2024/01/10 06:46:19;;;;;;;9.40;7.43;;;-3.90;89.40;;;;;;5044945;28;20307;-84
2024/01/10 06:48:45;;;;;;;8.00;4.35;;;-4.00;88.90;;;;;;5050193;28;20587;-84
2024/01/10 06:51:14;;;;;;;9.30;5.75;;;-4.00;89.70;;;;;;5055352;28;20208;-85
2024/01/10 06:53:41;;;;;;;12.95;7.45;;;-4.10;90.00;;;;;;5059728;28;20283;-84
2024/01/10 06:56:09;;;;;;;4.68;4.38;;;-4.10;90.10;;;;;;5054814;28;20207;-85
2024/01/10 06:58:36;;;;;;;5.50;4.90;;;-4.20;90.20;;;;;;5062163;28;20208;-84
2024/01/10 07:01:05;;;;;;;8.80;5.57;;;-4.20;90.10;;;;;;5060523;28;20211;-83
2024/01/10 07:03:32;;;;;;;5.28;3.90;;;-4.30;90.00;;;;;;5044363;27;20604;-85
2024/01/10 07:05:58;;;;;;;6.35;5.80;;;-4.30;90.20;;;;;;5059383;27;20225;-83
2024/01/10 07:08:26;;;;;;;10.88;6.97;;;-4.30;90.10;;;;;;5045260;28;20212;-84
2024/01/10 07:10:55;;;;;;;8.43;5.88;;;-4.40;90.40;;;;;;5062906;27;20286;-83
2024/01/10 07:13:22;;;;;;;8.63;6.00;;;-4.60;90.40;;;;;;5047291;28;20272;-84
2024/01/10 07:15:50;;;;;;;8.57;6.40;;;-4.70;90.70;;;;;;5053151;28;20296;-82
2024/01/10 07:18:22;;;;;;;15.15;8.45;;;-4.80;91.00;;;;;;5050584;27;20231;-81
2024/01/10 07:20:49;;;;;;;7.65;4.65;;;-4.90;91.20;;;;;;5050441;28;20204;-82
2024/01/10 07:23:16;;;;;;;5.22;4.72;;;-4.90;91.30;;;;;;5051182;27;20212;-80
2024/01/10 07:25:43;;;;;;;10.95;6.40;;;-4.80;91.50;;;;;;5056795;28;20220;-88
2024/01/10 07:28:10;;;;;;;6.07;4.32;;;-4.60;91.30;;;;;;5058301;28;20291;-86
2024/01/10 07:30:36;;;;;;;15.43;4.70;;;-4.60;91.00;;;;;;5059038;27;20205;-80
2024/01/10 07:33:03;;;;;;;14.57;6.90;;;-4.60;91.10;;;;;;5075055;27;20201;-80
2024/01/10 07:35:32;;;;;;;4.47;3.85;;;-4.50;91.30;;;;;;5070529;27;20203;-83
2024/01/10 07:37:58;;;;;;;3.90;3.60;;;-4.50;91.20;;;;;;5051380;28;20315;-86
2024/01/10 07:40:25;;;;;;;14.60;8.02;;;-4.50;91.30;;;;;;5032993;28;20630;-85
2024/01/10 07:42:52;;;;;;;16.25;6.40;;;-4.40;91.00;;;;;;5045807;28;20291;-86
2024/01/10 07:45:19;;;;;;;5.93;4.95;;;-4.40;91.10;;;;;;5043588;28;20665;-85
2024/01/10 07:47:46;;;;;;;9.32;7.47;;;-4.50;91.30;;;;;;5037820;27;20247;-85
2024/01/10 07:50:14;;;;;;;6.25;5.38;;;-4.40;91.70;;;;;;5065517;27;20291;-85
2024/01/10 07:52:43;;;;;;;5.35;4.88;;;-4.40;91.90;;;;;;5057655;27;20555;-85
2024/01/10 07:55:10;;;;;;;10.13;8.82;;;-4.40;92.10;;;;;;5051044;27;20208;-86
2024/01/10 07:57:37;;;;;;;11.18;5.85;;;-4.40;92.10;;;;;;5056529;27;20208;-85
2024/01/10 08:00:05;;;;;;;5.75;5.25;;;-4.40;92.20;;;;;;5052067;27;20208;-85
2024/01/10 08:02:33;;;;;;;10.38;6.55;;;-4.30;92.20;;;;;;5058018;27;20294;-84
2024/01/10 08:05:00;;;;;;;6.80;6.10;;;-4.30;92.40;;;;;;5054239;27;20229;-85
2024/01/10 08:07:27;;;;;;;6.85;5.68;;;-4.30;92.20;;;;;;5056906;27;20232;-85
2024/01/10 08:09:55;;;;;;;21.35;5.85;;;-4.20;92.20;;;;;;5060621;27;20204;-85
2024/01/10 08:12:22;;;;;;;6.35;5.78;;;-4.00;92.30;;;;;;5059140;27;20708;-84
2024/01/10 08:14:50;;;;;;;10.15;6.72;;;-3.90;92.10;;;;;;5068120;27;20227;-86
2024/01/10 08:17:16;;;;;;;8.50;5.50;;;-3.70;91.70;;;;;;5050725;27;20211;-86
2024/01/10 08:19:43;;;;;;;8.02;5.82;;;-3.50;91.30;;;;;;5044107;28;20221;-82
2024/01/10 08:22:10;;;;;;;8.55;7.50;;;-3.30;90.60;;;;;;5039016;28;20212;-82
2024/01/10 08:24:37;;;;;;;7.50;5.90;;;-3.30;90.20;;;;;;5050793;27;20626;-85
2024/01/10 08:27:05;;;;;;;11.27;6.20;;;-3.00;89.90;;;;;;5047703;27;20229;-82
2024/01/10 08:29:32;;;;;;;11.00;6.35;;;-3.10;89.20;;;;;;5038272;28;20215;-84
2024/01/10 08:31:59;;;;;;;9.27;7.43;;;-3.10;89.50;;;;;;5046382;28;20201;-84
2024/01/10 08:34:26;;;;;;;11.70;6.60;;;-3.00;88.70;;;;;;5043661;27;20278;-83
2024/01/10 08:36:53;;;;;;;8.00;7.20;;;-3.00;88.80;;;;;;5051645;27;20229;-80
2024/01/10 08:39:21;;;;;;;20.35;6.57;;;-2.90;88.30;;;;;;5048496;27;20205;-81
2024/01/10 08:41:48;;;;;;;7.57;6.93;;;-2.90;87.90;;;;;;5046575;27;20228;-85
2024/01/10 08:44:17;;;;;;;10.20;6.03;;;-2.80;87.30;;;;;;5042013;27;20240;-78
2024/01/10 08:46:43;;;;;;;11.63;7.07;;;-2.80;87.30;;;;;;5056694;27;20714;-85
2024/01/10 08:49:10;;;;;;;13.48;6.60;;;-2.70;87.50;;;;;;5044447;27;20272;-78
2024/01/10 08:51:37;;;;;;;9.80;7.28;;;-2.60;87.10;;;;;;5050309;27;20647;-78
2024/01/10 08:54:04;;;;;;;10.63;6.40;;;-2.40;86.60;;;;;;5040065;28;20207;-78
2024/01/10 08:56:31;;;;;;;10.73;7.35;;;-2.50;85.60;;;;;;5038662;28;20214;-78
2024/01/10 08:58:58;;;;;;;7.47;6.75;;;-2.50;86.00;;;;;;5056200;27;20208;-78
2024/01/10 09:01:26;;;;;;;9.85;6.90;;;-2.40;85.80;;;;;;5047598;28;20212;-78
2024/01/10 09:03:53;;;;;;;12.02;8.10;;;-2.40;86.20;;;;;;5043999;28;20207;-78
2024/01/10 09:06:20;;;;;;;12.20;8.10;;;-2.40;86.30;;;;;;5059360;27;20307;-81
2024/01/10 09:08:47;;;;;;;17.85;7.45;;;-2.30;86.20;;;;;;5032017;27;20204;-75
2024/01/10 09:11:14;;;;;;;16.35;7.40;;;-2.20;85.80;;;;;;5056801;27;20220;-76
2024/01/10 09:13:41;;;;;;;10.45;7.10;;;-2.20;85.40;;;;;;5036141;27;20204;-78
2024/01/10 09:16:09;;;;;;;13.20;6.75;;;-2.10;85.30;;;;;;5063439;27;20208;-77
2024/01/10 09:18:38;;;;;;;11.82;7.72;;;-2.00;85.30;;;;;;5039631;27;20213;-75
2024/01/10 09:21:05;;;;;;;12.20;9.75;;;-1.90;85.50;;;;;;5048337;27;20200;-79
2024/01/10 09:23:32;;;;;;;14.20;8.27;;;-1.80;85.00;;;;;;5060219;27;20201;-82
2024/01/10 09:25:59;;;;;;;14.95;6.85;;;-1.80;84.80;;;;;;5054796;27;20643;-82
2024/01/10 09:28:26;;;;;;;9.73;6.78;;;-1.80;84.10;;;;;;5040682;28;20683;-84
2024/01/10 09:30:54;;;;;;;9.68;5.88;;;-1.70;84.30;;;;;;5049247;28;20203;-75
2024/01/10 09:33:22;;;;;;;12.60;9.05;;;-1.70;84.20;;;;;;5053803;27;20747;-81
2024/01/10 09:35:50;;;;;;;15.25;7.90;;;-2.10;85.00;;;;;;5055865;27;20208;-80
2024/01/10 09:38:17;;;;;;;10.63;7.03;;;-2.00;85.80;;;;;;5041198;28;20226;-76
2024/01/10 09:40:44;;;;;;;10.30;6.82;;;-2.20;85.50;;;;;;5040430;28;20205;-80
2024/01/10 09:43:12;;;;;;;11.73;7.70;;;-2.00;86.50;;;;;;5038446;28;20205;-82
2024/01/10 09:45:46;;;;;;;13.60;8.95;;;-1.80;86.90;;;;;;5054491;27;20281;-76
2024/01/10 09:48:15;;;;;;;10.23;7.32;;;-1.60;85.90;;;;;;5053384;27;20238;-81
2024/01/10 09:50:42;;;;;;;12.43;7.32;;;-1.70;86.70;;;;;;5061238;27;20250;-76
2024/01/10 09:53:17;;;;;;;14.75;6.30;;;-1.50;85.30;;;;;;5040119;28;20287;-77
2024/01/10 09:55:44;;;;;;;13.15;5.75;;;-1.40;85.50;;;;;;5039980;28;20208;-75
2024/01/10 09:58:11;;;;;;;17.50;7.38;;;-1.70;84.90;;;;;;5039190;28;20199;-75
2024/01/10 10:00:38;;;;;;;13.48;9.15;;;-1.90;86.30;;;;;;5037582;28;20586;-74
2024/01/10 10:03:07;;;;;;;11.55;8.02;;;-1.80;87.10;;;;;;5040981;28;20210;-75
2024/01/10 10:05:35;;;;;;;11.63;5.75;;;-1.70;86.60;;;;;;5044928;28;20540;-75
2024/01/10 10:08:02;;;;;;;12.95;8.82;;;-1.70;86.50;;;;;;5053014;28;20224;-75
2024/01/10 10:10:31;;;;;;;8.45;6.03;;;-1.70;86.70;;;;;;5042675;28;20208;-75
2024/01/10 10:12:57;;;;;;;8.50;7.13;;;-1.60;87.20;;;;;;5058073;28;20634;-75
2024/01/10 10:15:26;;;;;;;11.77;6.22;;;-1.70;86.20;;;;;;5055173;28;20234;-75
2024/01/10 10:17:53;;;;;;;10.05;7.80;;;-1.80;86.80;;;;;;5058399;28;20204;-75
2024/01/10 10:20:22;;;;;;;19.85;10.45;;;-1.90;86.80;;;;;;5054591;27;20204;-75
2024/01/10 10:23:00;;;;;;;16.77;9.50;;;-1.90;87.50;;;;;;5055099;28;20204;-75
2024/01/10 10:25:29;;;;;;;10.48;9.35;;;-1.70;87.90;;;;;;5053785;28;20208;-74
2024/01/10 10:27:57;;;;;;;10.52;7.82;;;-1.50;86.90;;;;;;5041352;28;20720;-75
2024/01/10 10:30:24;;;;;;;14.15;10.60;;;-1.40;86.60;;;;;;5052192;27;21038;-75
2024/01/10 10:32:51;;;;;;;15.38;8.93;;;-1.30;86.40;;;;;;5051583;28;20201;-75
2024/01/10 10:35:20;;;;;;;16.10;7.40;;;-1.20;85.50;;;;;;5052047;27;20218;-75
2024/01/10 10:37:47;;;;;;;14.77;9.88;;;-1.10;86.00;;;;;;5049409;28;20287;-75
2024/01/10 10:40:14;;;;;;;13.45;7.55;;;-1.20;85.80;;;;;;5045941;28;20243;-75
2024/01/10 10:42:45;;;;;;;11.43;8.32;;;-1.50;85.80;;;;;;5047703;28;20215;-75
2024/01/10 10:45:17;;;;;;;10.45;8.60;;;-1.30;87.00;;;;;;5048619;28;20204;-75
2024/01/10 10:47:46;;;;;;;13.88;9.10;;;-1.10;86.00;;;;;;5045545;27;20595;-75
2024/01/10 10:50:15;;;;;;;16.38;7.53;;;-1.00;85.70;;;;;;5046518;27;20610;-75
2024/01/10 10:52:46;;;;;;;19.10;10.07;;;-1.10;85.50;;;;;;5039294;28;20205;-75
2024/01/10 10:55:15;;;;;;;15.73;8.70;;;-1.10;86.30;;;;;;5049635;28;20617;-75
2024/01/10 10:57:45;;;;;;;9.60;8.25;;;-1.00;86.30;;;;;;5064254;28;20295;-75
2024/01/10 11:00:15;;;;;;;11.10;9.05;;;-0.90;85.60;;;;;;5061919;28;20203;-75
2024/01/10 11:02:42;;;;;;;12.05;7.65;;;-1.00;85.70;;;;;;5049340;28;20634;-75
2024/01/10 11:05:10;;;;;;;15.75;10.10;;;-1.00;86.00;;;;;;5053414;28;20209;-76
2024/01/10 11:07:37;;;;;;;15.20;8.45;;;-0.90;86.30;;;;;;5046402;28;20303;-75
2024/01/10 11:10:07;;;;;;;16.50;9.15;;;-0.80;85.80;;;;;;5058050;28;20201;-75
2024/01/10 11:12:59;;;;;;;7.97;7.18;;;-1.00;85.90;;;;;;5056812;28;20290;-75
2024/01/10 11:15:44;;;;;;;19.92;11.38;;;-1.00;85.70;;;;;;5062211;27;20217;-75
2024/01/10 11:18:41;;;;;;;11.93;8.30;;;-1.00;86.80;;;;;;5052415;28;20206;-75
2024/01/10 11:21:20;;;;;;;13.10;7.88;;;-1.00;87.30;;;;;;5049882;28;20219;-75
2024/01/10 11:23:49;;;;;;;15.93;10.35;;;-0.90;87.10;;;;;;5053639;28;20208;-75
2024/01/10 11:26:18;;;;;;;20.38;10.18;;;-0.90;86.70;;;;;;5053736;28;20211;-75
2024/01/10 11:28:45;;;;;;;17.10;9.63;;;-0.90;86.90;;;;;;5052571;28;20714;-75
2024/01/10 11:31:15;;;;;;;13.55;8.65;;;-0.80;86.60;;;;;;5052637;28;20219;-75
2024/01/10 11:33:43;;;;;;;16.90;11.15;;;-0.80;87.50;;;;;;5050441;28;20355;-75
2024/01/10 11:36:14;;;;;;;15.82;9.45;;;-0.70;87.00;;;;;;5052465;28;20650;-75
2024/01/10 11:39:02;;;;;;;23.40;10.32;;;-0.70;86.60;;;;;;5043753;28;20641;-75
2024/01/10 11:41:30;;;;;;;14.98;9.63;;;-0.70;86.80;;;;;;5047522;28;20204;-75
2024/01/10 11:44:28;;;;;;;12.88;8.18;;;-0.60;86.40;;;;;;5046053;28;20316;-75
2024/01/10 11:46:57;;;;;;;11.73;8.93;;;-0.70;87.00;;;;;;5041831;28;20470;-75
2024/01/10 11:49:26;;;;;;;13.60;8.93;;;-0.70;87.30;;;;;;5048687;27;20566;-75
2024/01/10 11:51:56;;;;;;;19.15;9.88;;;-0.70;87.50;;;;;;5044820;28;20218;-75
2024/01/10 11:54:43;;;;;;;11.38;9.30;;;-0.70;87.10;;;;;;5039398;28;20217;-75
2024/01/10 11:57:12;;;;;;;18.63;7.90;;;-0.60;88.20;;;;;;5043042;28;20562;-75
2024/01/10 11:59:41;;;;;;;15.60;11.43;;;-0.70;87.00;;;;;;5056022;28;20204;-75
2024/01/10 12:02:10;;;;;;;19.25;9.82;;;-0.80;87.70;;;;;;5061153;28;20225;-75
2024/01/10 12:04:36;;;;;;;15.15;7.95;;;-0.70;88.40;;;;;;5061331;28;20204;-75
2024/01/10 12:07:04;;;;;;;13.80;9.45;;;-0.60;89.00;;;;;;5060761;28;20232;-75
2024/01/10 12:09:32;;;;;;;19.67;10.85;;;-0.60;88.70;;;;;;5054516;28;20553;-75
2024/01/10 12:11:59;;;;;;;17.05;10.40;;;-0.50;88.50;;;;;;5059098;27;20204;-75
2024/01/10 12:14:26;;;;;;;22.70;12.00;;;-0.40;88.50;;;;;;5041002;28;20287;-75
2024/01/10 12:16:53;;;;;;;18.48;8.77;;;-0.20;88.40;;;;;;5049191;28;20676;-75
2024/01/10 12:19:21;;;;;;;16.42;11.27;;;-0.30;87.90;;;;;;5055343;28;20205;-75
2024/01/10 12:21:49;;;;;;;12.15;10.05;;;-0.30;88.70;;;;;;5054797;28;20220;-75
2024/01/10 12:24:16;;;;;;;27.55;11.43;;;-0.30;88.70;;;;;;5053727;28;20222;-75
2024/01/10 12:26:46;;;;;;;15.98;9.98;;;-0.30;88.00;;;;;;5033777;28;20204;-75
2024/01/10 12:29:13;;;;;;;15.30;10.02;;;-0.30;87.90;;;;;;5034120;28;20642;-75
2024/01/10 12:31:40;;;;;;;14.82;12.13;;;-0.30;88.80;;;;;;5032284;28;20636;-75
2024/01/10 12:34:09;;;;;;;18.45;10.13;;;-0.30;87.80;;;;;;5041002;28;20234;-75
2024/01/10 12:36:38;;;;;;;17.75;12.00;;;-0.30;88.00;;;;;;5048021;28;20261;-75
2024/01/10 12:39:06;;;;;;;17.80;10.63;;;-0.40;89.00;;;;;;5034674;28;20639;-75
2024/01/10 12:41:34;;;;;;;15.38;11.52;;;-0.30;89.00;;;;;;5038079;28;20213;-75
2024/01/10 12:44:03;;;;;;;24.05;10.68;;;-0.20;88.90;;;;;;5047129;28;20328;-75